Mekhanik Banatov — UABI — position and weather

sailwx.info

Track history (hours):
 
Tides and Currents Weather Stations Pressure Air Temp Water Temp Dewpoint Dewpoint Depression Visibility Wind Speed Wind Dir Waves Ship Positions

Mekhanik Banatov

Last reported at 2017-May-22 15:36 UTC. Time now 2017-May-26 13:06 UTC.
Position N 45°31' E 036°47'.

Length 132 m; draft 2.8 m.

Type: Tanker. MMSI: 273272100.

Date/timePositionNaut miles runAvg speedWind from/ knotsBaromVisibWave heightAir tempDewpointWater temp
2017-May-22 15:36N 45°31' E 036°47'1 8.2
2017-May-22 15:30N 45°30' E 036°46'4 8.4
2017-May-22 15:01N 45°27' E 036°42'8 7.7
2017-May-22 14:00N 45°20' E 036°38'4 8.3
2017-May-22 13:30N 45°19' E 036°32'4 7.1
2017-May-22 13:00N 45°16' E 036°29'3 6.1
2017-May-22 12:30N 45°13' E 036°30'0 0.2
2017-May-22 10:39N 45°13' E 036°30'0 0.0
2017-May-22 10:24N 45°13' E 036°30'0 0.0
2017-May-22 10:00N 45°13' E 036°30'0 0.0
2017-May-22 09:30N 45°13' E 036°30'0 0.0
2017-May-22 09:00N 45°13' E 036°30'0 0.0
2017-May-22 08:30N 45°13' E 036°30'3 4.3
2017-May-22 07:52N 45°11' E 036°31'3 7.5
2017-May-22 07:30N 45°08' E 036°32'3 0.6
2017-May-22 02:50N 45°06' E 036°35'0 0.0
2017-May-22 02:30N 45°06' E 036°35'8 0.9
2017-May-21 17:45N 45°13' E 036°29'2 6.5
2017-May-21 17:24N 45°15' E 036°28'2 6.3
2017-May-21 17:00N 45°18' E 036°29'3 6.0
2017-May-21 16:30N 45°19' E 036°33'3 5.8
2017-May-21 16:01N 45°20' E 036°37'3 6.0
2017-May-21 15:30N 45°22' E 036°40'4 7.2
2017-May-21 15:00N 45°25' E 036°41'4 7.3
2017-May-21 14:31N 45°28' E 036°43'  
Track history (hours):
 
Tides and Currents Weather Stations Pressure Air Temp Water Temp Dewpoint Dewpoint Depression Visibility Wind Speed Wind Dir Waves Ship Positions

Mekhanik Banatov

Last reported at 2017-May-22 15:36 UTC. Time now 2017-May-26 13:06 UTC.
Position N 45°31' E 036°47'.

Length 132 m; draft 2.8 m.

Type: Tanker. MMSI: 273272100.

Date/timePositionNaut miles runAvg speedWind from/ knotsBaromVisibWave heightAir tempDewpointWater temp
2017-May-22 15:36N 45°31' E 036°47'1 8.2
2017-May-22 15:30N 45°30' E 036°46'4 8.4
2017-May-22 15:01N 45°27' E 036°42'8 7.7
2017-May-22 14:00N 45°20' E 036°38'4 8.3
2017-May-22 13:30N 45°19' E 036°32'4 7.1
2017-May-22 13:00N 45°16' E 036°29'3 6.1
2017-May-22 12:30N 45°13' E 036°30'0 0.2
2017-May-22 10:39N 45°13' E 036°30'0 0.0
2017-May-22 10:24N 45°13' E 036°30'0 0.0
2017-May-22 10:00N 45°13' E 036°30'0 0.0
2017-May-22 09:30N 45°13' E 036°30'0 0.0
2017-May-22 09:00N 45°13' E 036°30'0 0.0
2017-May-22 08:30N 45°13' E 036°30'3 4.3
2017-May-22 07:52N 45°11' E 036°31'3 7.5
2017-May-22 07:30N 45°08' E 036°32'3 0.6
2017-May-22 02:50N 45°06' E 036°35'0 0.0
2017-May-22 02:30N 45°06' E 036°35'8 0.9
2017-May-21 17:45N 45°13' E 036°29'2 6.5
2017-May-21 17:24N 45°15' E 036°28'2 6.3
2017-May-21 17:00N 45°18' E 036°29'3 6.0
2017-May-21 16:30N 45°19' E 036°33'3 5.8
2017-May-21 16:01N 45°20' E 036°37'3 6.0
2017-May-21 15:30N 45°22' E 036°40'4 7.2
2017-May-21 15:00N 45°25' E 036°41'4 7.3
2017-May-21 14:31N 45°28' E 036°43'  

Dump ship's entire track history